Flight Training


We provide structured training required to obtain a pilots certificate ranging from a Private Pilot up to ATP flying for the major airlines.

If your desire to fly is for personal pleasure the first step is to find a professional FAA licensed flight instructor to begin your journey.

The one-hour introductory flight with an instructor lasts one hour and features a log book and a six-month subscription to Flight Training magazine. After flying you to the training area, your instructor will let you test the controls. Call us now

 

Aviation Weather

Available data for KLDJ from the past 2 hours
LINDEN, NJ
Metar
KLDJ 101055Z AUTO 00000KT 10SM BKN006 24/22 A3005 RMK AO2 T02360220

10:55 UTC

Wind: 0° 0kt

Visibility: 10 SM

Sky: BKN 600 ft

Temp: 24 deg C / 75.2 deg F

Dewpoint: 22 deg C / 71.6 deg F

Pressure: 30.05 inHg

Pirep (1)
EWR UA /OV EWR360002/TM 1055/FL004/TP B752/SK 004

Available data for KEWR from the past hour
NEWARK, NJ
TAF
KEWR 101044Z 1011/1112 24005KT P6SM SCT060 TEMPO 1011/1012 BKN006 FM101800 25010KT P6SM SCT060 TEMPO 1019/1023 20008KT FM110000 22006KT P6SM SKC
Pirep (1)
EWR UA /OV EWR360002/TM 1055/FL004/TP B752/SK 004

Our planes

Some of our students